Time;durP1;ratioP1;P1;durP2;ratioP2;P2;SDS_P1;SDS_P2;PMS_P1;PMS_P2;Temp;Humidity;BMP_temperature;BMP_pressure;BME280_temperature;BME280_humidity;BME280_pressure;Samples;Min_cycle;Max_cycle;Signal;HPM_P1;HPM_P2
2022/10/13 00:03:00;;;;;;;6.45;3.88;;;15.60;68.90;;;;;;10366128;28;20026;-57
2022/10/13 00:08:01;;;;;;;4.03;3.20;;;15.60;68.90;;;;;;10382158;28;20025;-56
2022/10/13 00:13:02;;;;;;;8.35;3.30;;;15.60;68.90;;;;;;10370393;28;20037;-57
2022/10/13 00:18:03;;;;;;;4.00;2.83;;;15.60;68.90;;;;;;10365025;28;20037;-55
2022/10/13 00:23:03;;;;;;;6.30;3.45;;;15.60;69.00;;;;;;10364827;28;20026;-57
2022/10/13 00:28:04;;;;;;;6.05;3.63;;;15.60;68.90;;;;;;10365085;28;20073;-56
2022/10/13 00:33:06;;;;;;;4.50;3.05;;;15.60;68.90;;;;;;10363495;28;20157;-59
2022/10/13 00:38:07;;;;;;;3.70;3.15;;;15.60;69.00;;;;;;10363165;28;20385;-57
2022/10/13 00:43:18;;;;;;;3.72;2.60;;;15.60;69.00;;;;;;10363008;28;20133;-56
2022/10/13 00:48:29;;;;;;;5.03;3.53;;;15.60;69.00;;;;;;10363165;28;20045;-56
2022/10/13 00:53:34;;;;;;;5.20;3.17;;;15.60;68.90;;;;;;10364296;28;20022;-56
2022/10/13 00:58:37;;;;;;;3.92;2.80;;;15.60;68.80;;;;;;10362657;28;20041;-57
2022/10/13 01:03:37;;;;;;;5.45;3.13;;;15.60;68.80;;;;;;10362913;28;20018;-57
2022/10/13 01:08:38;;;;;;;4.85;3.22;;;15.60;68.80;;;;;;10371563;28;20033;-57
2022/10/13 01:14:14;;;;;;;4.00;2.78;;;15.60;68.80;;;;;;10379280;28;20442;-57
2022/10/13 01:19:42;;;;;;;3.88;3.13;;;15.60;69.30;;;;;;10362579;28;20145;-55
2022/10/13 01:24:52;;;;;;;3.90;3.00;;;15.60;68.80;;;;;;10363478;28;20041;-57
2022/10/13 01:30:05;;;;;;;6.13;3.22;;;15.60;68.80;;;;;;10361416;28;20449;-57
2022/10/13 01:35:52;;;;;;;5.45;4.07;;;15.60;68.90;;;;;;10363272;28;20034;-57
2022/10/13 01:41:11;;;;;;;5.15;3.00;;;15.60;68.80;;;;;;10375988;28;20056;-56
2022/10/13 01:46:25;;;;;;;5.15;3.28;;;15.60;68.90;;;;;;10355935;28;20645;-57
2022/10/13 01:51:28;;;;;;;4.13;3.20;;;15.60;68.90;;;;;;10369812;28;20091;-57
2022/10/13 01:56:29;;;;;;;4.60;3.20;;;15.60;68.90;;;;;;10370717;28;20071;-56
2022/10/13 02:02:22;;;;;;;3.88;2.63;;;15.60;68.90;;;;;;10369425;28;20038;-57
2022/10/13 02:07:31;;;;;;;3.50;2.42;;;15.60;68.90;;;;;;10283971;28;20030;-56
2022/10/13 02:12:50;;;;;;;5.43;3.10;;;15.50;68.90;;;;;;10360428;28;20033;-56
2022/10/13 02:17:51;;;;;;;4.60;3.25;;;15.60;68.90;;;;;;10384687;28;20092;-57
2022/10/13 02:23:00;;;;;;;5.15;3.40;;;15.50;68.90;;;;;;10369965;28;20030;-56
2022/10/13 02:28:01;;;;;;;4.45;3.13;;;15.60;68.90;;;;;;10368096;28;20481;-57
2022/10/13 02:33:02;;;;;;;4.85;3.10;;;15.60;68.90;;;;;;10367834;28;20045;-57
2022/10/13 02:38:03;;;;;;;5.50;2.85;;;15.50;68.90;;;;;;10369153;28;20508;-57
2022/10/13 02:43:04;;;;;;;5.32;2.97;;;15.50;68.90;;;;;;10366296;28;20072;-59
2022/10/13 02:48:05;;;;;;;5.05;3.80;;;15.60;68.90;;;;;;10382440;28;20052;-56
2022/10/13 02:53:05;;;;;;;4.70;2.92;;;15.50;68.90;;;;;;10380555;28;20026;-56
2022/10/13 02:58:06;;;;;;;4.63;2.55;;;15.50;69.00;;;;;;10366510;28;20147;-57
2022/10/13 03:03:07;;;;;;;5.70;3.40;;;15.50;69.00;;;;;;10366693;28;20018;-56
2022/10/13 03:08:07;;;;;;;4.30;3.40;;;15.50;68.90;;;;;;10374027;28;20704;-56
2022/10/13 03:13:08;;;;;;;5.03;3.78;;;15.50;69.00;;;;;;10370070;28;20026;-57
2022/10/13 03:18:09;;;;;;;4.82;3.63;;;15.50;68.90;;;;;;10363179;28;20061;-55
2022/10/13 03:23:10;;;;;;;5.25;2.67;;;15.50;68.90;;;;;;10364872;28;20018;-56
2022/10/13 03:28:10;;;;;;;4.13;2.90;;;15.50;68.90;;;;;;10365893;28;20025;-57
2022/10/13 03:33:12;;;;;;;4.60;3.22;;;15.50;68.90;;;;;;10366761;28;20164;-58
2022/10/13 03:38:12;;;;;;;6.50;4.05;;;15.50;68.90;;;;;;10379196;28;20038;-56
2022/10/13 03:43:13;;;;;;;4.15;2.72;;;15.50;69.00;;;;;;10365444;28;20065;-56
2022/10/13 03:48:13;;;;;;;5.32;4.05;;;15.50;69.00;;;;;;10365741;28;20053;-57
2022/10/13 03:53:14;;;;;;;4.18;2.80;;;15.50;69.00;;;;;;10365356;28;20124;-57
2022/10/13 03:58:15;;;;;;;3.70;3.00;;;15.50;69.00;;;;;;10364991;28;20037;-57
2022/10/13 04:03:17;;;;;;;3.65;2.92;;;15.50;69.00;;;;;;10364465;28;20025;-57
2022/10/13 04:08:18;;;;;;;7.30;3.53;;;15.50;69.00;;;;;;10373678;28;20033;-56
2022/10/13 04:13:18;;;;;;;5.18;3.60;;;15.50;69.00;;;;;;10366064;28;20053;-57
2022/10/13 04:18:19;;;;;;;5.38;3.10;;;15.50;69.00;;;;;;10378504;28;20068;-55
2022/10/13 04:23:20;;;;;;;4.45;3.20;;;15.50;69.00;;;;;;10362492;28;20052;-56
2022/10/13 04:28:20;;;;;;;4.95;3.10;;;15.50;69.00;;;;;;10380237;28;20164;-56
2022/10/13 04:33:21;;;;;;;4.45;3.60;;;15.50;69.00;;;;;;10363712;28;20125;-56
2022/10/13 04:38:22;;;;;;;4.72;3.47;;;15.50;69.00;;;;;;10363683;28;20116;-56
2022/10/13 04:43:22;;;;;;;4.35;3.08;;;15.50;69.00;;;;;;10377939;28;20751;-57
2022/10/13 04:48:23;;;;;;;4.25;3.10;;;15.50;69.00;;;;;;10364876;28;20176;-56
2022/10/13 04:53:27;;;;;;;3.47;2.60;;;15.50;69.00;;;;;;10364518;28;20072;-56
2022/10/13 04:58:29;;;;;;;4.07;2.80;;;15.50;69.10;;;;;;10377615;28;20033;-57
2022/10/13 05:03:30;;;;;;;5.45;3.05;;;15.50;69.00;;;;;;10362796;28;20052;-58
2022/10/13 05:08:32;;;;;;;4.63;3.05;;;15.50;69.40;;;;;;10388057;28;20170;-59
2022/10/13 05:13:32;;;;;;;8.35;3.22;;;15.60;69.70;;;;;;10364339;28;20030;-59
2022/10/13 05:18:33;;;;;;;6.70;3.63;;;15.60;69.60;;;;;;10364007;28;20449;-58
2022/10/13 05:23:34;;;;;;;8.07;3.17;;;15.70;69.80;;;;;;10371149;28;20108;-59
2022/10/13 05:28:35;;;;;;;5.65;3.00;;;15.70;69.90;;;;;;10384340;28;20752;-58
2022/10/13 05:33:36;;;;;;;8.20;3.13;;;15.80;70.20;;;;;;10370552;28;20053;-58
2022/10/13 05:38:37;;;;;;;10.40;4.35;;;15.70;70.10;;;;;;10369161;28;20084;-57
2022/10/13 05:43:40;;;;;;;16.58;4.78;;;15.70;70.40;;;;;;10369967;28;20053;-56
2022/10/13 05:48:41;;;;;;;12.32;3.80;;;15.60;70.00;;;;;;10370261;28;20018;-57
2022/10/13 05:53:48;;;;;;;14.98;5.13;;;15.60;70.20;;;;;;10383085;28;20477;-57
2022/10/13 05:58:59;;;;;;;13.10;4.53;;;15.60;70.30;;;;;;10369916;28;20029;-57
2022/10/13 06:04:06;;;;;;;13.93;5.32;;;15.60;70.40;;;;;;10383279;28;20029;-56
2022/10/13 06:09:07;;;;;;;14.38;4.18;;;15.60;70.70;;;;;;10378225;28;20033;-57
2022/10/13 06:14:07;;;;;;;14.68;4.88;;;15.70;70.50;;;;;;10367647;28;20457;-57
2022/10/13 06:19:08;;;;;;;11.02;4.47;;;15.70;70.50;;;;;;10379458;28;20521;-57
2022/10/13 06:24:09;;;;;;;8.88;4.55;;;15.60;70.10;;;;;;10384982;28;20025;-58
2022/10/13 06:29:09;;;;;;;12.90;4.55;;;15.60;70.30;;;;;;10368300;28;20060;-58
2022/10/13 06:34:11;;;;;;;7.97;3.95;;;15.60;70.40;;;;;;10365321;28;20097;-58
2022/10/13 06:39:11;;;;;;;9.40;3.60;;;15.50;70.20;;;;;;10363127;28;20033;-57
2022/10/13 06:44:13;;;;;;;15.85;4.57;;;15.60;70.30;;;;;;10389712;28;20427;-58
2022/10/13 06:49:13;;;;;;;8.63;3.35;;;15.60;70.20;;;;;;10364524;28;20042;-58
2022/10/13 06:54:14;;;;;;;8.35;4.07;;;15.60;70.30;;;;;;10364082;28;20097;-58
2022/10/13 06:59:15;;;;;;;10.57;4.20;;;15.50;70.20;;;;;;10364782;28;20046;-58
2022/10/13 07:04:16;;;;;;;6.22;3.75;;;15.60;70.20;;;;;;10366276;28;20096;-58
2022/10/13 07:09:17;;;;;;;13.68;3.75;;;15.50;70.20;;;;;;10375002;28;20118;-58
2022/10/13 07:14:17;;;;;;;8.30;3.83;;;15.60;70.20;;;;;;10364411;28;20020;-58
2022/10/13 07:19:18;;;;;;;8.13;4.10;;;15.50;70.10;;;;;;10365411;28;20116;-58
2022/10/13 07:24:19;;;;;;;8.65;4.20;;;15.50;70.10;;;;;;10365512;28;20079;-58
2022/10/13 07:29:19;;;;;;;8.93;3.70;;;15.50;70.10;;;;;;10365509;28;20030;-58
2022/10/13 07:34:20;;;;;;;5.65;3.97;;;15.50;70.00;;;;;;10363445;28;20058;-57
2022/10/13 07:39:21;;;;;;;5.53;3.47;;;15.60;70.10;;;;;;10363420;28;20029;-58
2022/10/13 07:44:22;;;;;;;8.40;4.45;;;15.50;70.10;;;;;;10362604;28;20042;-58
2022/10/13 07:49:22;;;;;;;8.75;3.50;;;15.50;70.10;;;;;;10364166;28;20725;-57
2022/10/13 07:54:23;;;;;;;6.93;3.97;;;15.50;70.10;;;;;;10377614;28;20037;-58
2022/10/13 07:59:24;;;;;;;5.72;2.97;;;15.50;70.10;;;;;;10362842;28;20104;-57
2022/10/13 08:04:33;;;;;;;8.45;3.80;;;15.50;70.20;;;;;;10363879;28;20014;-57
2022/10/13 08:09:34;;;;;;;7.68;4.00;;;15.50;70.10;;;;;;10345951;28;20072;-55
2022/10/13 08:14:35;;;;;;;5.50;3.65;;;15.50;70.10;;;;;;10363531;28;20541;-58
2022/10/13 08:19:35;;;;;;;7.15;3.40;;;15.50;70.10;;;;;;10363309;28;20034;-57
2022/10/13 08:24:36;;;;;;;7.95;3.92;;;15.50;70.10;;;;;;10362943;28;20089;-58
2022/10/13 08:29:37;;;;;;;7.30;4.18;;;15.50;70.10;;;;;;10362834;28;20060;-58
2022/10/13 08:34:37;;;;;;;4.95;3.50;;;15.50;70.10;;;;;;10361527;28;20029;-58
2022/10/13 08:39:38;;;;;;;5.20;3.65;;;15.50;70.10;;;;;;10362570;28;20061;-57
2022/10/13 08:45:05;;;;;;;6.22;3.78;;;15.50;70.10;;;;;;10363039;28;20188;-58
2022/10/13 08:50:24;;;;;;;4.65;3.60;;;15.50;70.10;;;;;;10360849;28;20037;-58
2022/10/13 08:55:39;;;;;;;5.75;3.97;;;15.50;70.10;;;;;;10372596;28;20032;-58
2022/10/13 09:00:40;;;;;;;4.40;3.50;;;15.50;70.10;;;;;;10360704;28;20468;-56
2022/10/13 09:05:57;;;;;;;5.43;3.67;;;15.50;70.20;;;;;;10360617;28;20045;-60
2022/10/13 09:10:58;;;;;;;4.85;3.40;;;15.50;70.20;;;;;;10371359;28;20014;-58
2022/10/13 09:15:59;;;;;;;8.07;4.78;;;15.50;70.10;;;;;;10361844;28;20076;-58
2022/10/13 09:21:15;;;;;;;5.65;3.67;;;15.50;70.10;;;;;;10361481;28;20683;-58
2022/10/13 09:26:21;;;;;;;5.18;2.88;;;15.50;70.20;;;;;;10360848;28;20502;-57
2022/10/13 09:31:29;;;;;;;4.45;2.95;;;15.50;70.20;;;;;;10359460;28;20022;-57
2022/10/13 09:36:30;;;;;;;6.00;3.58;;;15.50;70.30;;;;;;10359950;28;20026;-57
2022/10/13 09:41:31;;;;;;;7.15;4.15;;;15.50;70.30;;;;;;10346934;28;20485;-57
2022/10/13 09:47:10;;;;;;;5.90;2.90;;;15.50;70.20;;;;;;10360074;28;20021;-58
2022/10/13 09:52:11;;;;;;;7.50;3.65;;;15.50;70.20;;;;;;10338351;28;20030;-57
2022/10/13 09:57:44;;;;;;;7.88;3.75;;;15.50;70.30;;;;;;10361355;28;20028;-56
2022/10/13 10:03:23;;;;;;;5.95;4.18;;;15.50;70.30;;;;;;10360743;28;20058;-58
2022/10/13 10:08:47;;;;;;;5.70;4.22;;;15.50;70.30;;;;;;10374458;28;20097;-58
2022/10/13 10:13:47;;;;;;;8.55;4.03;;;15.50;70.40;;;;;;10356199;28;20048;-57
2022/10/13 10:19:12;;;;;;;5.70;4.22;;;15.50;70.30;;;;;;10368110;28;20040;-58
2022/10/13 10:24:43;;;;;;;7.05;3.72;;;15.50;70.20;;;;;;10366975;28;20482;-57
2022/10/13 10:30:11;;;;;;;6.78;4.00;;;15.50;70.20;;;;;;10366076;28;20026;-58
2022/10/13 10:35:38;;;;;;;5.50;3.33;;;15.50;70.30;;;;;;10366202;28;20022;-56
2022/10/13 10:41:15;;;;;;;7.80;3.45;;;15.50;70.30;;;;;;10365946;28;20136;-58
2022/10/13 10:46:27;;;;;;;5.90;3.42;;;15.60;70.30;;;;;;10355675;28;20378;-58
2022/10/13 10:51:35;;;;;;;5.75;3.38;;;15.60;70.40;;;;;;10365892;28;20384;-58
2022/10/13 10:56:53;;;;;;;5.70;3.47;;;15.50;70.30;;;;;;10365447;28;20018;-58
2022/10/13 11:02:06;;;;;;;4.95;3.10;;;15.50;70.30;;;;;;10349642;28;20069;-58
2022/10/13 11:07:53;;;;;;;4.20;2.97;;;15.60;70.30;;;;;;10367830;28;20109;-58
2022/10/13 11:12:54;;;;;;;4.18;2.92;;;15.50;70.30;;;;;;10372347;28;20578;-58
2022/10/13 11:17:55;;;;;;;5.32;3.20;;;15.50;70.40;;;;;;10364992;28;20033;-57
2022/10/13 11:22:58;;;;;;;3.95;2.90;;;15.60;70.40;;;;;;10364384;28;20026;-58
2022/10/13 11:27:59;;;;;;;4.63;3.17;;;15.50;70.40;;;;;;10365304;28;20025;-56
2022/10/13 11:33:08;;;;;;;5.53;3.55;;;15.50;70.40;;;;;;10363688;28;20350;-58
2022/10/13 11:38:32;;;;;;;4.20;3.17;;;15.60;70.40;;;;;;10364868;28;20026;-57
2022/10/13 11:44:02;;;;;;;4.70;3.08;;;15.50;70.40;;;;;;10363358;28;20059;-57
2022/10/13 11:49:27;;;;;;;4.80;3.25;;;15.60;70.40;;;;;;10363545;28;20057;-57
2022/10/13 11:54:39;;;;;;;6.20;3.17;;;15.60;70.50;;;;;;10364269;28;20026;-57
2022/10/13 11:59:46;;;;;;;6.13;3.55;;;15.60;72.40;;;;;;10364529;28;20048;-57
2022/10/13 12:05:26;;;;;;;6.57;3.70;;;15.70;75.60;;;;;;10362574;28;20014;-56
2022/10/13 12:10:35;;;;;;;5.45;3.55;;;15.80;75.00;;;;;;10373567;28;20034;-57
2022/10/13 12:15:42;;;;;;;4.63;3.65;;;15.80;74.40;;;;;;10362456;28;20029;-57
2022/10/13 12:20:53;;;;;;;4.68;3.25;;;15.80;74.10;;;;;;10362432;28;20034;-58
2022/10/13 12:25:57;;;;;;;6.43;4.15;;;15.80;73.80;;;;;;10361674;28;20026;-56
2022/10/13 12:30:59;;;;;;;5.18;3.20;;;15.80;73.60;;;;;;10361872;28;20021;-58
2022/10/13 12:36:17;;;;;;;5.22;3.95;;;15.80;73.60;;;;;;10374682;28;20033;-60
2022/10/13 12:41:32;;;;;;;3.65;2.67;;;15.80;73.40;;;;;;10362481;28;20058;-58
2022/10/13 12:46:51;;;;;;;6.38;4.03;;;15.70;73.30;;;;;;10363201;28;20179;-57
2022/10/13 12:52:09;;;;;;;5.30;3.42;;;15.70;73.80;;;;;;10361374;28;20076;-58
2022/10/13 12:57:20;;;;;;;4.75;3.05;;;15.70;73.20;;;;;;10362553;28;20022;-58
2022/10/13 13:02:31;;;;;;;3.67;2.63;;;15.70;73.00;;;;;;10361087;28;20112;-58
2022/10/13 13:07:35;;;;;;;4.45;2.95;;;15.70;73.00;;;;;;10361817;28;20026;-57
2022/10/13 13:12:36;;;;;;;5.18;3.13;;;15.70;73.50;;;;;;10368645;28;20079;-58
2022/10/13 13:17:37;;;;;;;4.13;3.05;;;15.70;72.90;;;;;;10368847;28;20052;-56
2022/10/13 13:22:38;;;;;;;5.15;3.20;;;15.70;72.80;;;;;;10366869;28;20477;-57
2022/10/13 13:27:39;;;;;;;3.85;2.67;;;15.70;72.80;;;;;;10361875;28;20087;-56
2022/10/13 13:32:40;;;;;;;4.50;3.15;;;15.70;72.70;;;;;;10362278;28;20088;-58
2022/10/13 13:37:49;;;;;;;4.43;3.28;;;15.70;72.70;;;;;;10361716;28;20543;-57
2022/10/13 13:42:51;;;;;;;4.90;3.67;;;15.70;72.60;;;;;;10366502;28;20139;-57
2022/10/13 13:47:51;;;;;;;4.65;2.88;;;15.70;72.60;;;;;;10369238;28;20543;-57
2022/10/13 13:52:52;;;;;;;5.78;3.45;;;15.60;72.50;;;;;;10369237;28;20026;-58
2022/10/13 13:57:52;;;;;;;4.70;3.28;;;15.70;72.50;;;;;;10368848;28;20109;-57
2022/10/13 14:02:55;;;;;;;4.05;3.35;;;15.60;72.30;;;;;;10368594;28;20655;-57
2022/10/13 14:07:56;;;;;;;3.78;2.88;;;15.60;72.30;;;;;;10372900;28;20024;-58
2022/10/13 14:12:57;;;;;;;5.30;3.05;;;15.70;72.20;;;;;;10373882;28;20758;-56
2022/10/13 14:17:58;;;;;;;5.85;2.80;;;15.70;72.20;;;;;;10366482;28;20036;-57
2022/10/13 14:22:58;;;;;;;3.65;2.90;;;15.60;72.20;;;;;;10367840;28;20014;-58
2022/10/13 14:27:59;;;;;;;4.72;2.92;;;15.60;72.20;;;;;;10367749;28;20062;-58
2022/10/13 14:33:00;;;;;;;3.72;2.70;;;15.70;72.20;;;;;;10367447;28;20072;-57
2022/10/13 14:38:01;;;;;;;3.92;2.88;;;15.60;72.00;;;;;;10367422;28;20018;-58
2022/10/13 14:43:02;;;;;;;3.45;2.67;;;15.70;72.10;;;;;;10366764;28;20370;-57
2022/10/13 14:48:03;;;;;;;4.07;3.22;;;15.70;72.00;;;;;;10367153;28;20101;-58
2022/10/13 14:53:03;;;;;;;3.97;2.83;;;15.70;72.00;;;;;;10365453;28;20034;-57
2022/10/13 14:58:04;;;;;;;5.25;3.28;;;15.70;72.00;;;;;;10381631;28;20115;-57
2022/10/13 15:03:04;;;;;;;4.13;3.25;;;15.70;72.00;;;;;;10366748;28;20108;-58
2022/10/13 15:08:05;;;;;;;3.83;2.90;;;15.70;72.00;;;;;;10370666;28;20299;-55
2022/10/13 15:13:06;;;;;;;5.40;2.90;;;15.60;71.90;;;;;;10369976;28;20414;-58
2022/10/13 15:18:06;;;;;;;4.13;2.80;;;15.60;71.90;;;;;;10364853;28;20361;-56
2022/10/13 15:23:07;;;;;;;4.40;3.28;;;15.70;71.90;;;;;;10365772;28;20097;-57
2022/10/13 15:28:08;;;;;;;5.22;3.60;;;15.60;71.80;;;;;;10379262;28;20077;-58
2022/10/13 15:33:08;;;;;;;5.80;2.90;;;15.60;71.80;;;;;;10365352;28;20045;-56
2022/10/13 15:38:09;;;;;;;3.95;3.40;;;15.60;71.80;;;;;;10363607;28;20057;-57
2022/10/13 15:43:10;;;;;;;5.70;3.10;;;15.60;71.80;;;;;;10363191;28;20147;-58
2022/10/13 15:48:11;;;;;;;5.10;3.25;;;15.60;71.80;;;;;;10379575;28;20026;-56
2022/10/13 15:53:12;;;;;;;3.60;2.55;;;15.60;71.90;;;;;;10364464;28;20060;-57
2022/10/13 15:58:13;;;;;;;3.95;2.78;;;15.60;71.90;;;;;;10364216;28;20045;-58
2022/10/13 16:03:17;;;;;;;6.28;3.33;;;15.70;72.00;;;;;;10363521;28;21015;-56
2022/10/13 16:08:17;;;;;;;5.82;3.30;;;15.70;71.90;;;;;;10369075;28;20018;-58
2022/10/13 16:13:18;;;;;;;3.50;2.58;;;15.70;71.80;;;;;;10365517;28;20425;-57
2022/10/13 16:18:18;;;;;;;5.88;4.00;;;15.60;71.80;;;;;;10362789;28;20107;-59
2022/10/13 16:23:19;;;;;;;6.28;3.15;;;15.70;72.10;;;;;;10378827;28;20197;-58
2022/10/13 16:28:20;;;;;;;9.93;4.68;;;15.80;72.20;;;;;;10363977;28;20058;-61
2022/10/13 16:33:20;;;;;;;12.55;5.88;;;15.80;71.70;;;;;;10378222;28;20026;-59
2022/10/13 16:38:21;;;;;;;8.40;4.57;;;16.00;74.20;;;;;;10365278;28;20042;-60
2022/10/13 16:43:22;;;;;;;7.90;4.03;;;16.00;74.30;;;;;;10364873;28;20140;-60
2022/10/13 16:48:22;;;;;;;11.13;4.63;;;16.10;74.20;;;;;;10363603;28;20117;-60
2022/10/13 16:53:23;;;;;;;10.50;5.15;;;16.10;74.10;;;;;;10363395;28;20092;-59
2022/10/13 16:58:24;;;;;;;9.43;5.22;;;16.00;74.00;;;;;;10362937;28;20120;-58
2022/10/13 17:03:25;;;;;;;13.30;5.15;;;16.10;74.20;;;;;;10364475;28;20030;-58
2022/10/13 17:08:25;;;;;;;10.68;4.80;;;16.10;73.40;;;;;;10367866;28;20088;-59
2022/10/13 17:13:26;;;;;;;13.20;5.60;;;16.10;73.40;;;;;;10363374;28;20481;-60
2022/10/13 17:18:27;;;;;;;15.27;4.63;;;16.00;73.70;;;;;;10362836;28;20037;-60
2022/10/13 17:23:29;;;;;;;13.27;5.13;;;15.90;74.40;;;;;;10364304;28;20022;-59
2022/10/13 17:28:30;;;;;;;11.13;5.90;;;15.90;73.70;;;;;;10362678;28;20022;-60
2022/10/13 17:33:33;;;;;;;10.00;4.35;;;15.80;73.70;;;;;;10378469;28;20045;-60
2022/10/13 17:38:34;;;;;;;9.88;5.90;;;15.80;73.70;;;;;;10382745;28;20069;-59
2022/10/13 17:43:37;;;;;;;14.63;4.97;;;15.80;73.50;;;;;;10361330;28;20061;-60
2022/10/13 17:48:38;;;;;;;13.63;4.88;;;15.90;73.70;;;;;;10363527;28;20033;-60
2022/10/13 17:53:40;;;;;;;15.20;4.65;;;15.90;73.70;;;;;;10363558;28;20159;-61
2022/10/13 17:58:43;;;;;;;12.20;4.65;;;15.90;73.30;;;;;;10361440;28;20608;-60
2022/10/13 18:03:46;;;;;;;14.32;4.93;;;15.80;73.40;;;;;;10361719;28;20022;-60
2022/10/13 18:08:49;;;;;;;16.23;5.50;;;15.80;73.60;;;;;;10369571;28;20022;-60
2022/10/13 18:13:51;;;;;;;21.10;5.75;;;15.80;73.50;;;;;;10360499;28;20040;-59
2022/10/13 18:18:53;;;;;;;14.98;5.15;;;15.80;73.40;;;;;;10361017;28;20038;-58
2022/10/13 18:23:56;;;;;;;9.32;4.55;;;15.90;73.60;;;;;;10360794;28;20022;-59
2022/10/13 18:28:57;;;;;;;11.40;4.95;;;15.80;73.60;;;;;;10366091;28;20109;-56
2022/10/13 18:34:01;;;;;;;12.80;4.97;;;15.80;73.50;;;;;;10369413;28;20449;-57
2022/10/13 18:39:13;;;;;;;9.40;4.75;;;15.80;73.30;;;;;;10368591;28;20046;-56
2022/10/13 18:44:14;;;;;;;10.82;4.85;;;15.80;73.40;;;;;;10367404;28;20050;-57
2022/10/13 18:49:17;;;;;;;7.75;5.20;;;15.80;73.40;;;;;;10368262;28;20057;-56
2022/10/13 18:54:18;;;;;;;11.20;4.35;;;15.80;73.40;;;;;;10379461;28;20073;-56
2022/10/13 18:59:19;;;;;;;12.82;4.45;;;15.70;73.50;;;;;;10378153;28;20116;-57
2022/10/13 19:04:21;;;;;;;7.65;4.50;;;15.70;73.60;;;;;;10367706;28;20758;-58
2022/10/13 19:09:23;;;;;;;7.30;5.32;;;15.80;73.30;;;;;;10376796;28;20034;-58
2022/10/13 19:14:24;;;;;;;9.35;4.82;;;15.80;73.50;;;;;;10365870;28;20065;-58
2022/10/13 19:19:25;;;;;;;10.57;5.75;;;15.80;73.50;;;;;;10366172;28;20034;-58
2022/10/13 19:24:25;;;;;;;8.52;5.20;;;15.80;73.40;;;;;;10366193;28;20034;-57
2022/10/13 19:29:26;;;;;;;7.38;4.63;;;15.80;73.30;;;;;;10368317;28;20064;-58
2022/10/13 19:34:27;;;;;;;8.13;5.03;;;15.70;73.20;;;;;;10365514;28;20037;-58
2022/10/13 19:39:28;;;;;;;7.80;4.85;;;15.70;73.10;;;;;;10365215;28;20496;-58
2022/10/13 19:44:29;;;;;;;7.07;4.40;;;15.80;73.20;;;;;;10370365;28;20038;-58
2022/10/13 19:49:29;;;;;;;9.05;4.53;;;15.70;73.10;;;;;;10365472;28;20025;-59
2022/10/13 19:54:33;;;;;;;7.75;4.90;;;15.70;73.10;;;;;;10375403;28;20532;-57
2022/10/13 19:59:35;;;;;;;7.63;4.90;;;15.70;73.00;;;;;;10377709;28;20026;-57
2022/10/13 20:04:36;;;;;;;10.85;5.82;;;15.70;73.00;;;;;;10364237;28;20030;-58
2022/10/13 20:09:36;;;;;;;6.80;4.63;;;15.70;72.90;;;;;;10374547;28;20038;-58
2022/10/13 20:14:37;;;;;;;7.55;4.85;;;15.70;72.90;;;;;;10377654;28;20473;-58
2022/10/13 20:19:38;;;;;;;7.70;4.38;;;15.70;72.90;;;;;;10364048;28;20384;-59
2022/10/13 20:24:38;;;;;;;7.05;4.45;;;15.70;72.90;;;;;;10365866;28;20053;-59
2022/10/13 20:29:39;;;;;;;7.03;4.47;;;15.70;72.90;;;;;;10364934;28;20104;-58
2022/10/13 20:34:40;;;;;;;5.85;4.65;;;15.70;72.80;;;;;;10365112;28;20500;-59
2022/10/13 20:39:41;;;;;;;6.47;4.55;;;15.70;72.80;;;;;;10375066;28;20025;-59
2022/10/13 20:44:41;;;;;;;7.85;4.25;;;15.70;72.80;;;;;;10363399;28;20731;-58
2022/10/13 20:49:42;;;;;;;9.85;5.47;;;15.70;72.70;;;;;;10361932;28;20080;-58
2022/10/13 20:54:43;;;;;;;6.93;4.55;;;15.70;72.90;;;;;;10364493;28;20089;-58
2022/10/13 20:59:43;;;;;;;6.50;4.10;;;15.70;73.00;;;;;;10359046;28;20128;-58
2022/10/13 21:04:44;;;;;;;8.23;3.97;;;15.70;73.00;;;;;;10359144;28;20487;-58
2022/10/13 21:09:45;;;;;;;4.80;3.95;;;15.70;72.90;;;;;;10361961;28;20185;-57
2022/10/13 21:14:45;;;;;;;5.13;4.15;;;15.70;73.30;;;;;;10364053;28;20057;-58
2022/10/13 21:19:46;;;;;;;6.75;4.55;;;15.70;72.60;;;;;;10363324;28;20065;-58
2022/10/13 21:24:47;;;;;;;5.95;3.83;;;15.70;72.60;;;;;;10363342;28;20101;-58
2022/10/13 21:29:47;;;;;;;4.75;4.03;;;15.70;72.60;;;;;;10392059;28;20161;-57
2022/10/13 21:34:48;;;;;;;6.13;4.22;;;15.70;72.50;;;;;;10361804;28;20049;-58
2022/10/13 21:39:49;;;;;;;6.60;4.63;;;15.70;72.50;;;;;;10359044;28;20073;-58
2022/10/13 21:44:49;;;;;;;4.95;3.85;;;15.70;72.50;;;;;;10363381;28;20118;-58
2022/10/13 21:49:52;;;;;;;5.07;4.05;;;15.70;72.40;;;;;;10362965;28;20544;-58
2022/10/13 21:54:53;;;;;;;4.80;3.63;;;15.70;72.40;;;;;;10363497;28;20037;-58
2022/10/13 21:59:54;;;;;;;5.63;3.83;;;15.70;72.40;;;;;;10362733;28;20097;-58
2022/10/13 22:04:54;;;;;;;5.57;4.00;;;15.60;72.30;;;;;;10384971;28;20173;-57
2022/10/13 22:09:55;;;;;;;4.97;4.15;;;15.70;72.40;;;;;;10380426;28;20094;-59
2022/10/13 22:14:56;;;;;;;4.63;3.78;;;15.70;72.30;;;;;;10381754;28;20441;-58
2022/10/13 22:19:56;;;;;;;6.00;4.28;;;15.60;72.30;;;;;;10368110;28;20054;-59
2022/10/13 22:24:57;;;;;;;6.30;4.35;;;15.60;72.30;;;;;;10370258;28;20097;-57
2022/10/13 22:29:58;;;;;;;6.25;4.53;;;15.70;72.30;;;;;;10368618;28;20053;-58
2022/10/13 22:34:58;;;;;;;5.18;3.90;;;15.70;72.20;;;;;;10368450;28;20445;-57
2022/10/13 22:39:59;;;;;;;6.90;4.75;;;15.70;72.20;;;;;;10382636;28;20038;-58
2022/10/13 22:44:59;;;;;;;5.95;3.83;;;15.60;72.10;;;;;;10368933;28;20084;-58
2022/10/13 22:50:00;;;;;;;5.30;4.78;;;15.60;72.10;;;;;;10379018;28;20149;-57
2022/10/13 22:55:01;;;;;;;6.45;4.43;;;15.60;72.10;;;;;;10368883;28;20114;-59
2022/10/13 23:00:04;;;;;;;6.00;4.68;;;15.60;72.10;;;;;;10368627;28;20061;-58
2022/10/13 23:05:05;;;;;;;7.65;4.80;;;15.60;72.20;;;;;;10366938;28;20030;-58
2022/10/13 23:10:06;;;;;;;6.18;4.40;;;15.60;72.40;;;;;;10377148;28;20037;-58
2022/10/13 23:15:08;;;;;;;7.32;5.05;;;15.60;72.30;;;;;;10366540;28;20052;-57
2022/10/13 23:20:09;;;;;;;6.25;4.13;;;15.60;72.30;;;;;;10365644;28;20116;-59
2022/10/13 23:25:09;;;;;;;7.00;4.65;;;15.60;72.10;;;;;;10367400;28;20485;-58
2022/10/13 23:30:11;;;;;;;9.07;5.80;;;15.60;72.10;;;;;;10382650;28;20010;-58
2022/10/13 23:35:12;;;;;;;6.78;5.10;;;15.60;72.10;;;;;;10366851;28;20149;-58
2022/10/13 23:40:12;;;;;;;6.88;4.97;;;15.70;72.10;;;;;;10366404;28;20038;-59
2022/10/13 23:45:13;;;;;;;5.85;4.20;;;15.60;72.00;;;;;;10365158;28;20512;-58
2022/10/13 23:50:14;;;;;;;6.68;5.13;;;15.60;72.00;;;;;;10381111;28;20125;-58
2022/10/13 23:55:15;;;;;;;8.85;4.95;;;15.60;72.00;;;;;;10366369;28;20116;-59
